Cleveland, Ohio
Current Conditions -  °F | °C
As of 8:53 PM on Sunday 23 Nov 2014 (Local Time) from KBKL Reporting Station
Light Rain Light Rain  
Wind Chill: 57°   Ceiling: 10000
Heat Index: 57°   Visibility: 10mi
Dew Point: 47°   Wind: 17mph
Humidity: 69%   Direction: 150°SSE
Pressure: 29.53"   Gusts: 30mph
Location:  41.5°N, 81.69°W
Report Text: KBKL 240153Z 15015G26KT 10SM -RA OVC100 14/08 A2953 RMK AO2 PK WND 14027/0118 RAB18 SLP999 P0001 T01390083
Loading
Personal Weather Stations






























Interactive Weather Map New forecast layout! Learn more

10-Day Weather Forecast

Advertisements
Track Severe Weather on mobile